sensor_id;sensor_type;location;lat;lon;timestamp;temperature;humidity
13074;DHT22;6603;47.066;15.396;2023-07-22T00:00:00;15.80;99.90
13074;DHT22;6603;47.066;15.396;2023-07-22T00:02:25;15.70;99.90
13074;DHT22;6603;47.066;15.396;2023-07-22T00:04:51;15.80;99.90
13074;DHT22;6603;47.066;15.396;2023-07-22T00:07:17;15.80;99.90
13074;DHT22;6603;47.066;15.396;2023-07-22T00:09:43;15.70;99.90
13074;DHT22;6603;47.066;15.396;2023-07-22T00:12:10;15.70;99.90
13074;DHT22;6603;47.066;15.396;2023-07-22T00:14:39;15.70;99.90
13074;DHT22;6603;47.066;15.396;2023-07-22T00:17:06;15.60;99.90
13074;DHT22;6603;47.066;15.396;2023-07-22T00:19:32;15.70;99.90
13074;DHT22;6603;47.066;15.396;2023-07-22T00:21:58;15.50;99.90
13074;DHT22;6603;47.066;15.396;2023-07-22T00:24:24;15.60;99.90
13074;DHT22;6603;47.066;15.396;2023-07-22T00:26:50;15.50;99.90
13074;DHT22;6603;47.066;15.396;2023-07-22T00:29:16;15.50;99.90
13074;DHT22;6603;47.066;15.396;2023-07-22T00:31:43;15.50;99.90
13074;DHT22;6603;47.066;15.396;2023-07-22T00:34:09;15.50;99.90
13074;DHT22;6603;47.066;15.396;2023-07-22T00:36:35;15.40;99.90
13074;DHT22;6603;47.066;15.396;2023-07-22T00:39:01;15.40;99.90
13074;DHT22;6603;47.066;15.396;2023-07-22T00:41:27;15.30;99.90
13074;DHT22;6603;47.066;15.396;2023-07-22T00:43:54;15.30;99.90
13074;DHT22;6603;47.066;15.396;2023-07-22T00:46:20;15.40;99.90
13074;DHT22;6603;47.066;15.396;2023-07-22T00:48:47;15.30;99.90
13074;DHT22;6603;47.066;15.396;2023-07-22T00:51:14;15.40;99.90
13074;DHT22;6603;47.066;15.396;2023-07-22T00:53:40;15.30;99.90
13074;DHT22;6603;47.066;15.396;2023-07-22T00:56:06;15.30;99.90
13074;DHT22;6603;47.066;15.396;2023-07-22T00:58:33;15.10;99.90
13074;DHT22;6603;47.066;15.396;2023-07-22T01:00:59;15.10;99.90
13074;DHT22;6603;47.066;15.396;2023-07-22T01:03:25;15.10;99.90
13074;DHT22;6603;47.066;15.396;2023-07-22T01:05:52;15.00;99.90
13074;DHT22;6603;47.066;15.396;2023-07-22T01:08:19;15.10;99.90
13074;DHT22;6603;47.066;15.396;2023-07-22T01:10:45;15.10;99.90
13074;DHT22;6603;47.066;15.396;2023-07-22T01:13:11;15.10;99.90
13074;DHT22;6603;47.066;15.396;2023-07-22T01:15:37;15.20;99.90
13074;DHT22;6603;47.066;15.396;2023-07-22T01:18:04;15.20;99.90
13074;DHT22;6603;47.066;15.396;2023-07-22T01:20:30;15.00;99.90
13074;DHT22;6603;47.066;15.396;2023-07-22T01:22:56;15.00;99.90
13074;DHT22;6603;47.066;15.396;2023-07-22T01:25:23;15.00;99.90
13074;DHT22;6603;47.066;15.396;2023-07-22T01:27:51;15.10;99.90
13074;DHT22;6603;47.066;15.396;2023-07-22T01:30:18;15.00;99.90
13074;DHT22;6603;47.066;15.396;2023-07-22T01:32:46;15.00;99.90
13074;DHT22;6603;47.066;15.396;2023-07-22T01:35:12;14.90;99.90
13074;DHT22;6603;47.066;15.396;2023-07-22T01:37:38;14.90;99.90
13074;DHT22;6603;47.066;15.396;2023-07-22T01:40:05;14.90;99.90
13074;DHT22;6603;47.066;15.396;2023-07-22T01:42:41;15.00;99.90
13074;DHT22;6603;47.066;15.396;2023-07-22T01:45:09;14.90;99.90
13074;DHT22;6603;47.066;15.396;2023-07-22T01:47:35;14.90;99.90
13074;DHT22;6603;47.066;15.396;2023-07-22T01:50:03;14.90;99.90
13074;DHT22;6603;47.066;15.396;2023-07-22T01:52:29;14.90;99.90
13074;DHT22;6603;47.066;15.396;2023-07-22T01:54:55;14.80;99.90
13074;DHT22;6603;47.066;15.396;2023-07-22T01:57:20;14.80;99.90
13074;DHT22;6603;47.066;15.396;2023-07-22T01:59:46;14.70;99.90
13074;DHT22;6603;47.066;15.396;2023-07-22T02:02:13;14.80;99.90
13074;DHT22;6603;47.066;15.396;2023-07-22T02:04:39;15.00;99.90
13074;DHT22;6603;47.066;15.396;2023-07-22T02:07:05;15.00;99.90
13074;DHT22;6603;47.066;15.396;2023-07-22T02:09:32;14.90;99.90
13074;DHT22;6603;47.066;15.396;2023-07-22T02:12:02;14.90;99.90
13074;DHT22;6603;47.066;15.396;2023-07-22T02:14:28;14.90;99.90
13074;DHT22;6603;47.066;15.396;2023-07-22T02:16:54;14.90;99.90
13074;DHT22;6603;47.066;15.396;2023-07-22T02:19:20;14.90;99.90
13074;DHT22;6603;47.066;15.396;2023-07-22T02:21:46;14.90;99.90
13074;DHT22;6603;47.066;15.396;2023-07-22T02:24:14;14.90;99.90
13074;DHT22;6603;47.066;15.396;2023-07-22T02:26:40;15.10;99.90
13074;DHT22;6603;47.066;15.396;2023-07-22T02:29:06;15.00;99.90
13074;DHT22;6603;47.066;15.396;2023-07-22T02:31:33;14.80;99.90
13074;DHT22;6603;47.066;15.396;2023-07-22T02:33:59;15.00;99.90
13074;DHT22;6603;47.066;15.396;2023-07-22T02:36:26;14.90;99.90
13074;DHT22;6603;47.066;15.396;2023-07-22T02:38:52;15.00;99.90
13074;DHT22;6603;47.066;15.396;2023-07-22T02:41:17;14.90;99.90
13074;DHT22;6603;47.066;15.396;2023-07-22T02:43:43;14.70;99.90
13074;DHT22;6603;47.066;15.396;2023-07-22T02:46:09;14.70;99.90
13074;DHT22;6603;47.066;15.396;2023-07-22T02:48:35;14.80;99.90
13074;DHT22;6603;47.066;15.396;2023-07-22T02:51:07;14.80;99.90
13074;DHT22;6603;47.066;15.396;2023-07-22T02:53:34;14.80;99.90
13074;DHT22;6603;47.066;15.396;2023-07-22T02:56:03;14.80;99.90
13074;DHT22;6603;47.066;15.396;2023-07-22T02:58:29;14.60;99.90
13074;DHT22;6603;47.066;15.396;2023-07-22T03:00:55;14.60;99.90
13074;DHT22;6603;47.066;15.396;2023-07-22T03:03:23;14.60;99.90
13074;DHT22;6603;47.066;15.396;2023-07-22T03:05:49;14.70;99.90
13074;DHT22;6603;47.066;15.396;2023-07-22T03:08:18;14.80;99.90
13074;DHT22;6603;47.066;15.396;2023-07-22T03:10:45;14.90;99.90
13074;DHT22;6603;47.066;15.396;2023-07-22T03:13:16;14.80;99.90
13074;DHT22;6603;47.066;15.396;2023-07-22T03:15:43;14.70;99.90
13074;DHT22;6603;47.066;15.396;2023-07-22T03:18:10;14.80;99.90
13074;DHT22;6603;47.066;15.396;2023-07-22T03:20:39;14.80;99.90
13074;DHT22;6603;47.066;15.396;2023-07-22T03:23:06;15.00;99.90
13074;DHT22;6603;47.066;15.396;2023-07-22T03:25:34;14.80;99.90
13074;DHT22;6603;47.066;15.396;2023-07-22T03:28:05;14.90;99.90
13074;DHT22;6603;47.066;15.396;2023-07-22T03:30:33;14.80;99.90
13074;DHT22;6603;47.066;15.396;2023-07-22T03:32:59;14.90;99.90
13074;DHT22;6603;47.066;15.396;2023-07-22T03:35:27;14.80;99.90
13074;DHT22;6603;47.066;15.396;2023-07-22T03:37:54;14.90;99.90
13074;DHT22;6603;47.066;15.396;2023-07-22T03:40:19;14.90;99.90
13074;DHT22;6603;47.066;15.396;2023-07-22T03:42:47;14.90;99.90
13074;DHT22;6603;47.066;15.396;2023-07-22T03:45:18;15.20;99.90
13074;DHT22;6603;47.066;15.396;2023-07-22T03:47:52;15.20;99.90
13074;DHT22;6603;47.066;15.396;2023-07-22T03:50:18;15.20;99.90
13074;DHT22;6603;47.066;15.396;2023-07-22T03:52:44;15.10;99.90
13074;DHT22;6603;47.066;15.396;2023-07-22T03:55:10;15.10;99.90
13074;DHT22;6603;47.066;15.396;2023-07-22T03:57:36;15.00;99.90
13074;DHT22;6603;47.066;15.396;2023-07-22T04:00:03;14.90;99.90
13074;DHT22;6603;47.066;15.396;2023-07-22T04:02:35;14.80;99.90
13074;DHT22;6603;47.066;15.396;2023-07-22T04:05:01;14.80;99.90
13074;DHT22;6603;47.066;15.396;2023-07-22T04:07:27;15.10;99.90
13074;DHT22;6603;47.066;15.396;2023-07-22T04:09:52;15.10;99.90
13074;DHT22;6603;47.066;15.396;2023-07-22T04:12:18;15.10;99.90
13074;DHT22;6603;47.066;15.396;2023-07-22T04:14:44;15.10;99.90
13074;DHT22;6603;47.066;15.396;2023-07-22T04:17:10;15.00;99.90
13074;DHT22;6603;47.066;15.396;2023-07-22T04:19:36;15.10;99.90
13074;DHT22;6603;47.066;15.396;2023-07-22T04:22:02;15.10;99.90
13074;DHT22;6603;47.066;15.396;2023-07-22T04:24:31;15.00;99.90
13074;DHT22;6603;47.066;15.396;2023-07-22T04:26:57;15.10;99.90
13074;DHT22;6603;47.066;15.396;2023-07-22T04:29:23;15.20;99.90
13074;DHT22;6603;47.066;15.396;2023-07-22T04:31:49;15.20;99.90
13074;DHT22;6603;47.066;15.396;2023-07-22T04:34:15;15.30;99.90
13074;DHT22;6603;47.066;15.396;2023-07-22T04:36:41;15.50;99.90
13074;DHT22;6603;47.066;15.396;2023-07-22T04:39:07;15.60;99.90
13074;DHT22;6603;47.066;15.396;2023-07-22T04:41:36;15.60;99.90
13074;DHT22;6603;47.066;15.396;2023-07-22T04:44:01;15.60;99.90
13074;DHT22;6603;47.066;15.396;2023-07-22T04:46:27;15.60;99.90
13074;DHT22;6603;47.066;15.396;2023-07-22T04:48:55;15.60;99.90
13074;DHT22;6603;47.066;15.396;2023-07-22T04:51:21;15.60;99.90
13074;DHT22;6603;47.066;15.396;2023-07-22T04:53:47;15.70;99.90
13074;DHT22;6603;47.066;15.396;2023-07-22T04:56:13;15.70;99.90
13074;DHT22;6603;47.066;15.396;2023-07-22T04:58:39;15.80;99.90
13074;DHT22;6603;47.066;15.396;2023-07-22T05:01:05;15.90;99.90
13074;DHT22;6603;47.066;15.396;2023-07-22T05:03:31;15.90;99.90
13074;DHT22;6603;47.066;15.396;2023-07-22T05:05:57;16.30;99.90
13074;DHT22;6603;47.066;15.396;2023-07-22T05:08:23;16.50;99.90
13074;DHT22;6603;47.066;15.396;2023-07-22T05:10:49;16.70;99.90
13074;DHT22;6603;47.066;15.396;2023-07-22T05:13:15;16.70;99.90
13074;DHT22;6603;47.066;15.396;2023-07-22T05:15:42;16.60;99.90
13074;DHT22;6603;47.066;15.396;2023-07-22T05:18:07;16.70;99.90
13074;DHT22;6603;47.066;15.396;2023-07-22T05:20:33;16.80;99.90
13074;DHT22;6603;47.066;15.396;2023-07-22T05:22:59;16.80;99.90
13074;DHT22;6603;47.066;15.396;2023-07-22T05:25:25;16.80;99.90
13074;DHT22;6603;47.066;15.396;2023-07-22T05:27:51;17.00;99.90
13074;DHT22;6603;47.066;15.396;2023-07-22T05:30:17;17.10;99.90
13074;DHT22;6603;47.066;15.396;2023-07-22T05:32:43;17.20;99.90
13074;DHT22;6603;47.066;15.396;2023-07-22T05:35:09;17.20;99.90
13074;DHT22;6603;47.066;15.396;2023-07-22T05:37:34;17.20;99.90
13074;DHT22;6603;47.066;15.396;2023-07-22T05:40:00;17.20;99.90
13074;DHT22;6603;47.066;15.396;2023-07-22T05:42:27;17.30;99.90
13074;DHT22;6603;47.066;15.396;2023-07-22T05:44:57;17.30;99.90
13074;DHT22;6603;47.066;15.396;2023-07-22T06:00:34;17.30;99.90
13074;DHT22;6603;47.066;15.396;2023-07-22T06:03:00;17.20;99.90
13074;DHT22;6603;47.066;15.396;2023-07-22T06:05:26;17.30;99.90
13074;DHT22;6603;47.066;15.396;2023-07-22T06:07:52;17.40;99.90
13074;DHT22;6603;47.066;15.396;2023-07-22T06:10:20;17.40;99.90
13074;DHT22;6603;47.066;15.396;2023-07-22T06:12:45;17.40;99.90
13074;DHT22;6603;47.066;15.396;2023-07-22T06:15:12;17.40;99.90
13074;DHT22;6603;47.066;15.396;2023-07-22T06:17:38;17.50;99.90
13074;DHT22;6603;47.066;15.396;2023-07-22T06:20:05;17.70;99.90
13074;DHT22;6603;47.066;15.396;2023-07-22T06:22:31;17.70;99.90
13074;DHT22;6603;47.066;15.396;2023-07-22T06:24:57;17.70;99.90
13074;DHT22;6603;47.066;15.396;2023-07-22T06:27:23;17.80;99.90
13074;DHT22;6603;47.066;15.396;2023-07-22T06:29:49;17.80;99.90
13074;DHT22;6603;47.066;15.396;2023-07-22T06:32:14;17.90;99.90
13074;DHT22;6603;47.066;15.396;2023-07-22T06:34:40;18.00;99.90
13074;DHT22;6603;47.066;15.396;2023-07-22T06:37:06;18.00;99.90
13074;DHT22;6603;47.066;15.396;2023-07-22T06:39:32;18.10;99.90
13074;DHT22;6603;47.066;15.396;2023-07-22T06:41:58;18.10;99.90
13074;DHT22;6603;47.066;15.396;2023-07-22T06:44:24;18.00;99.90
13074;DHT22;6603;47.066;15.396;2023-07-22T06:46:50;18.10;99.90
13074;DHT22;6603;47.066;15.396;2023-07-22T06:49:16;18.30;99.90
13074;DHT22;6603;47.066;15.396;2023-07-22T06:51:42;18.30;99.90
13074;DHT22;6603;47.066;15.396;2023-07-22T06:54:08;18.30;99.90
13074;DHT22;6603;47.066;15.396;2023-07-22T06:56:34;18.40;99.90
13074;DHT22;6603;47.066;15.396;2023-07-22T06:59:00;18.60;99.90
13074;DHT22;6603;47.066;15.396;2023-07-22T07:01:25;18.60;99.90
13074;DHT22;6603;47.066;15.396;2023-07-22T07:03:51;18.70;99.90
13074;DHT22;6603;47.066;15.396;2023-07-22T07:06:17;18.70;99.90
13074;DHT22;6603;47.066;15.396;2023-07-22T07:08:42;18.80;99.90
13074;DHT22;6603;47.066;15.396;2023-07-22T07:11:08;18.90;99.90
13074;DHT22;6603;47.066;15.396;2023-07-22T07:13:34;18.90;99.90
13074;DHT22;6603;47.066;15.396;2023-07-22T07:16:30;18.80;99.90
13074;DHT22;6603;47.066;15.396;2023-07-22T07:18:57;18.80;99.90
13074;DHT22;6603;47.066;15.396;2023-07-22T07:21:23;18.80;99.90
13074;DHT22;6603;47.066;15.396;2023-07-22T07:23:50;18.90;99.90
13074;DHT22;6603;47.066;15.396;2023-07-22T07:26:16;18.70;99.90
13074;DHT22;6603;47.066;15.396;2023-07-22T07:28:43;18.80;99.90
13074;DHT22;6603;47.066;15.396;2023-07-22T07:31:09;19.20;99.90
13074;DHT22;6603;47.066;15.396;2023-07-22T07:33:35;19.30;99.90
13074;DHT22;6603;47.066;15.396;2023-07-22T07:36:01;19.20;99.90
13074;DHT22;6603;47.066;15.396;2023-07-22T07:38:29;19.50;99.90
13074;DHT22;6603;47.066;15.396;2023-07-22T07:40:57;19.50;99.90
13074;DHT22;6603;47.066;15.396;2023-07-22T07:43:24;19.70;99.90
13074;DHT22;6603;47.066;15.396;2023-07-22T07:45:49;20.10;99.90
13074;DHT22;6603;47.066;15.396;2023-07-22T07:48:16;20.10;99.90
13074;DHT22;6603;47.066;15.396;2023-07-22T07:50:43;19.90;99.90
13074;DHT22;6603;47.066;15.396;2023-07-22T07:53:08;20.10;99.90
13074;DHT22;6603;47.066;15.396;2023-07-22T07:55:34;20.10;99.90
13074;DHT22;6603;47.066;15.396;2023-07-22T07:58:00;20.40;99.90
13074;DHT22;6603;47.066;15.396;2023-07-22T08:00:26;20.40;99.90
13074;DHT22;6603;47.066;15.396;2023-07-22T08:02:51;20.60;99.90
13074;DHT22;6603;47.066;15.396;2023-07-22T08:05:17;20.70;99.90
13074;DHT22;6603;47.066;15.396;2023-07-22T08:07:43;20.50;99.90
13074;DHT22;6603;47.066;15.396;2023-07-22T08:10:09;20.90;99.90
13074;DHT22;6603;47.066;15.396;2023-07-22T08:12:35;21.00;99.90
13074;DHT22;6603;47.066;15.396;2023-07-22T08:15:03;21.20;61.70
13074;DHT22;6603;47.066;15.396;2023-07-22T08:17:29;21.20;99.90
13074;DHT22;6603;47.066;15.396;2023-07-22T08:19:55;21.10;71.80
13074;DHT22;6603;47.066;15.396;2023-07-22T08:22:21;21.20;41.40
13074;DHT22;6603;47.066;15.396;2023-07-22T08:24:46;21.50;1.00
13074;DHT22;6603;47.066;15.396;2023-07-22T08:27:12;21.90;1.00
13074;DHT22;6603;47.066;15.396;2023-07-22T08:29:38;22.10;99.90
13074;DHT22;6603;47.066;15.396;2023-07-22T08:32:04;22.00;99.90
13074;DHT22;6603;47.066;15.396;2023-07-22T08:34:29;22.30;1.00
13074;DHT22;6603;47.066;15.396;2023-07-22T08:36:55;22.70;99.90
13074;DHT22;6603;47.066;15.396;2023-07-22T08:39:21;23.00;1.00
13074;DHT22;6603;47.066;15.396;2023-07-22T08:41:49;23.30;99.90
13074;DHT22;6603;47.066;15.396;2023-07-22T08:44:19;23.50;1.00
13074;DHT22;6603;47.066;15.396;2023-07-22T08:46:47;23.50;34.00
13074;DHT22;6603;47.066;15.396;2023-07-22T08:49:15;23.80;99.90
13074;DHT22;6603;47.066;15.396;2023-07-22T08:51:41;23.70;1.00
13074;DHT22;6603;47.066;15.396;2023-07-22T08:54:08;23.70;1.00
13074;DHT22;6603;47.066;15.396;2023-07-22T08:56:34;24.00;2.60
13074;DHT22;6603;47.066;15.396;2023-07-22T08:59:01;24.00;1.00
13074;DHT22;6603;47.066;15.396;2023-07-22T09:01:27;23.80;1.00
13074;DHT22;6603;47.066;15.396;2023-07-22T09:03:54;23.50;1.00
13074;DHT22;6603;47.066;15.396;2023-07-22T09:06:22;23.40;1.00
13074;DHT22;6603;47.066;15.396;2023-07-22T09:08:48;23.40;1.00
13074;DHT22;6603;47.066;15.396;2023-07-22T09:11:15;23.40;1.00
13074;DHT22;6603;47.066;15.396;2023-07-22T09:13:44;23.60;1.00
13074;DHT22;6603;47.066;15.396;2023-07-22T09:16:10;23.80;1.00
13074;DHT22;6603;47.066;15.396;2023-07-22T09:18:36;23.90;99.90
13074;DHT22;6603;47.066;15.396;2023-07-22T09:21:03;24.10;1.00
13074;DHT22;6603;47.066;15.396;2023-07-22T09:23:36;23.90;1.00
13074;DHT22;6603;47.066;15.396;2023-07-22T09:26:14;24.00;1.00
13074;DHT22;6603;47.066;15.396;2023-07-22T09:28:50;24.30;1.00
13074;DHT22;6603;47.066;15.396;2023-07-22T09:31:16;24.20;1.00
13074;DHT22;6603;47.066;15.396;2023-07-22T09:33:42;24.20;99.90
13074;DHT22;6603;47.066;15.396;2023-07-22T09:36:10;24.40;99.90
13074;DHT22;6603;47.066;15.396;2023-07-22T09:38:36;24.30;99.90
13074;DHT22;6603;47.066;15.396;2023-07-22T09:41:02;24.20;1.00
13074;DHT22;6603;47.066;15.396;2023-07-22T09:43:29;24.20;99.90
13074;DHT22;6603;47.066;15.396;2023-07-22T09:45:55;24.00;45.60
13074;DHT22;6603;47.066;15.396;2023-07-22T09:48:22;24.10;99.90
13074;DHT22;6603;47.066;15.396;2023-07-22T09:50:58;24.00;99.90
13074;DHT22;6603;47.066;15.396;2023-07-22T09:53:24;23.90;1.00
13074;DHT22;6603;47.066;15.396;2023-07-22T09:55:52;23.80;1.00
13074;DHT22;6603;47.066;15.396;2023-07-22T09:58:25;23.80;99.90
13074;DHT22;6603;47.066;15.396;2023-07-22T10:00:53;23.90;1.00
13074;DHT22;6603;47.066;15.396;2023-07-22T10:03:19;24.10;1.00
13074;DHT22;6603;47.066;15.396;2023-07-22T10:05:48;24.20;1.00
13074;DHT22;6603;47.066;15.396;2023-07-22T10:08:18;24.70;1.00
13074;DHT22;6603;47.066;15.396;2023-07-22T10:10:45;24.90;1.00
13074;DHT22;6603;47.066;15.396;2023-07-22T10:13:11;25.10;1.00
13074;DHT22;6603;47.066;15.396;2023-07-22T10:15:37;25.00;99.90
13074;DHT22;6603;47.066;15.396;2023-07-22T10:18:04;24.60;1.00
13074;DHT22;6603;47.066;15.396;2023-07-22T10:20:34;24.80;1.00
13074;DHT22;6603;47.066;15.396;2023-07-22T10:23:02;25.00;1.00
13074;DHT22;6603;47.066;15.396;2023-07-22T10:25:30;25.40;1.00
13074;DHT22;6603;47.066;15.396;2023-07-22T10:27:56;25.30;99.90
13074;DHT22;6603;47.066;15.396;2023-07-22T10:30:22;25.40;99.90
13074;DHT22;6603;47.066;15.396;2023-07-22T10:32:50;25.60;1.00
13074;DHT22;6603;47.066;15.396;2023-07-22T10:35:43;25.50;1.00
13074;DHT22;6603;47.066;15.396;2023-07-22T10:38:16;25.70;61.20
13074;DHT22;6603;47.066;15.396;2023-07-22T10:40:53;25.40;1.00
13074;DHT22;6603;47.066;15.396;2023-07-22T10:43:29;25.40;99.90
13074;DHT22;6603;47.066;15.396;2023-07-22T10:45:57;25.90;1.00
13074;DHT22;6603;47.066;15.396;2023-07-22T10:48:26;25.90;1.00
13074;DHT22;6603;47.066;15.396;2023-07-22T10:51:13;25.90;99.90
13074;DHT22;6603;47.066;15.396;2023-07-22T10:53:47;26.10;99.90
13074;DHT22;6603;47.066;15.396;2023-07-22T10:56:15;25.70;1.00
13074;DHT22;6603;47.066;15.396;2023-07-22T11:04:11;26.20;1.00
13074;DHT22;6603;47.066;15.396;2023-07-22T11:12:17;25.80;16.60
13074;DHT22;6603;47.066;15.396;2023-07-22T11:14:50;25.80;1.00
13074;DHT22;6603;47.066;15.396;2023-07-22T11:17:18;25.90;1.00
13074;DHT22;6603;47.066;15.396;2023-07-22T11:19:52;26.00;1.00
13074;DHT22;6603;47.066;15.396;2023-07-22T11:22:19;25.80;68.10
13074;DHT22;6603;47.066;15.396;2023-07-22T11:24:45;25.70;99.90
13074;DHT22;6603;47.066;15.396;2023-07-22T11:27:12;25.90;1.00
13074;DHT22;6603;47.066;15.396;2023-07-22T11:29:38;25.70;99.90
13074;DHT22;6603;47.066;15.396;2023-07-22T11:32:05;25.60;99.90
13074;DHT22;6603;47.066;15.396;2023-07-22T11:34:32;25.50;99.90
13074;DHT22;6603;47.066;15.396;2023-07-22T11:36:58;25.30;99.90
13074;DHT22;6603;47.066;15.396;2023-07-22T11:39:25;25.30;99.90
13074;DHT22;6603;47.066;15.396;2023-07-22T11:41:52;25.30;1.00
13074;DHT22;6603;47.066;15.396;2023-07-22T11:44:20;25.40;99.90
13074;DHT22;6603;47.066;15.396;2023-07-22T11:49:33;25.00;1.00
13074;DHT22;6603;47.066;15.396;2023-07-22T11:52:05;24.80;1.00
13074;DHT22;6603;47.066;15.396;2023-07-22T11:54:38;25.00;1.00
13074;DHT22;6603;47.066;15.396;2023-07-22T11:57:21;25.30;1.00
13074;DHT22;6603;47.066;15.396;2023-07-22T11:59:52;25.30;1.00
13074;DHT22;6603;47.066;15.396;2023-07-22T12:02:23;25.30;1.00
13074;DHT22;6603;47.066;15.396;2023-07-22T12:05:04;25.30;1.00
13074;DHT22;6603;47.066;15.396;2023-07-22T12:07:37;25.30;1.00
13074;DHT22;6603;47.066;15.396;2023-07-22T12:10:05;25.50;1.00
13074;DHT22;6603;47.066;15.396;2023-07-22T12:15:14;25.20;1.00
13074;DHT22;6603;47.066;15.396;2023-07-22T12:17:58;25.30;1.00
13074;DHT22;6603;47.066;15.396;2023-07-22T12:20:30;24.80;1.00
13074;DHT22;6603;47.066;15.396;2023-07-22T12:22:57;24.80;1.00
13074;DHT22;6603;47.066;15.396;2023-07-22T12:25:23;24.80;99.90
13074;DHT22;6603;47.066;15.396;2023-07-22T12:27:49;24.80;1.00
13074;DHT22;6603;47.066;15.396;2023-07-22T12:30:15;24.90;1.00
13074;DHT22;6603;47.066;15.396;2023-07-22T12:32:41;25.00;99.90
13074;DHT22;6603;47.066;15.396;2023-07-22T12:35:08;25.00;1.00
13074;DHT22;6603;47.066;15.396;2023-07-22T12:37:34;25.10;99.90
13074;DHT22;6603;47.066;15.396;2023-07-22T12:40:00;26.10;1.00
13074;DHT22;6603;47.066;15.396;2023-07-22T12:42:26;26.10;99.90
13074;DHT22;6603;47.066;15.396;2023-07-22T12:44:52;25.80;99.90
13074;DHT22;6603;47.066;15.396;2023-07-22T12:47:18;26.10;99.90
13074;DHT22;6603;47.066;15.396;2023-07-22T12:49:43;26.00;99.90
13074;DHT22;6603;47.066;15.396;2023-07-22T12:52:09;26.00;99.90
13074;DHT22;6603;47.066;15.396;2023-07-22T12:54:36;26.10;99.90
13074;DHT22;6603;47.066;15.396;2023-07-22T12:57:02;25.90;1.00
13074;DHT22;6603;47.066;15.396;2023-07-22T12:59:28;26.00;99.90
13074;DHT22;6603;47.066;15.396;2023-07-22T13:01:53;26.50;99.90
13074;DHT22;6603;47.066;15.396;2023-07-22T13:04:19;26.80;55.00
13074;DHT22;6603;47.066;15.396;2023-07-22T13:06:45;26.70;99.90
13074;DHT22;6603;47.066;15.396;2023-07-22T13:09:11;26.50;91.40
13074;DHT22;6603;47.066;15.396;2023-07-22T13:11:37;26.10;99.90
13074;DHT22;6603;47.066;15.396;2023-07-22T13:14:02;25.60;99.90
13074;DHT22;6603;47.066;15.396;2023-07-22T13:16:28;25.50;1.00
13074;DHT22;6603;47.066;15.396;2023-07-22T13:18:54;25.30;1.00
13074;DHT22;6603;47.066;15.396;2023-07-22T13:21:20;25.40;59.10
13074;DHT22;6603;47.066;15.396;2023-07-22T13:23:45;25.20;1.00
13074;DHT22;6603;47.066;15.396;2023-07-22T13:26:11;24.80;99.90
13074;DHT22;6603;47.066;15.396;2023-07-22T13:28:37;24.50;1.00
13074;DHT22;6603;47.066;15.396;2023-07-22T13:31:03;24.50;99.90
13074;DHT22;6603;47.066;15.396;2023-07-22T13:33:28;24.40;1.00
13074;DHT22;6603;47.066;15.396;2023-07-22T13:35:54;24.30;1.00
13074;DHT22;6603;47.066;15.396;2023-07-22T13:38:20;24.30;1.00
13074;DHT22;6603;47.066;15.396;2023-07-22T13:40:46;24.30;1.00
13074;DHT22;6603;47.066;15.396;2023-07-22T13:43:12;24.30;1.00
13074;DHT22;6603;47.066;15.396;2023-07-22T13:45:38;24.00;1.00
13074;DHT22;6603;47.066;15.396;2023-07-22T13:48:04;23.90;1.00
13074;DHT22;6603;47.066;15.396;2023-07-22T13:50:30;23.50;1.00
13074;DHT22;6603;47.066;15.396;2023-07-22T13:52:56;23.50;1.00
13074;DHT22;6603;47.066;15.396;2023-07-22T13:55:22;23.50;1.00
13074;DHT22;6603;47.066;15.396;2023-07-22T13:57:47;23.50;1.00
13074;DHT22;6603;47.066;15.396;2023-07-22T14:00:13;23.50;1.00
13074;DHT22;6603;47.066;15.396;2023-07-22T14:02:40;23.30;1.00
13074;DHT22;6603;47.066;15.396;2023-07-22T14:05:06;23.20;1.00
13074;DHT22;6603;47.066;15.396;2023-07-22T14:07:33;23.20;1.00
13074;DHT22;6603;47.066;15.396;2023-07-22T14:09:59;23.10;1.00
13074;DHT22;6603;47.066;15.396;2023-07-22T14:12:25;22.90;1.00
13074;DHT22;6603;47.066;15.396;2023-07-22T14:14:51;22.90;1.00
13074;DHT22;6603;47.066;15.396;2023-07-22T14:17:16;22.80;1.00
13074;DHT22;6603;47.066;15.396;2023-07-22T14:19:42;22.70;1.00
13074;DHT22;6603;47.066;15.396;2023-07-22T14:22:08;22.60;1.00
13074;DHT22;6603;47.066;15.396;2023-07-22T14:24:34;22.60;1.00
13074;DHT22;6603;47.066;15.396;2023-07-22T14:27:00;22.60;1.00
13074;DHT22;6603;47.066;15.396;2023-07-22T14:29:26;22.40;1.00
13074;DHT22;6603;47.066;15.396;2023-07-22T14:31:51;22.20;1.00
13074;DHT22;6603;47.066;15.396;2023-07-22T14:34:18;22.20;1.00
13074;DHT22;6603;47.066;15.396;2023-07-22T14:36:43;22.10;1.00
13074;DHT22;6603;47.066;15.396;2023-07-22T14:39:09;22.10;18.70
13074;DHT22;6603;47.066;15.396;2023-07-22T14:41:35;22.00;38.70
13074;DHT22;6603;47.066;15.396;2023-07-22T14:44:01;21.90;21.80
13074;DHT22;6603;47.066;15.396;2023-07-22T14:46:27;21.90;14.20
13074;DHT22;6603;47.066;15.396;2023-07-22T14:48:52;21.80;5.60
13074;DHT22;6603;47.066;15.396;2023-07-22T14:51:18;21.60;51.50
13074;DHT22;6603;47.066;15.396;2023-07-22T14:53:46;21.50;18.90
13074;DHT22;6603;47.066;15.396;2023-07-22T14:56:12;21.40;1.00
13074;DHT22;6603;47.066;15.396;2023-07-22T14:58:38;21.40;1.00
13074;DHT22;6603;47.066;15.396;2023-07-22T15:01:03;21.50;1.00
13074;DHT22;6603;47.066;15.396;2023-07-22T15:03:29;21.50;1.00
13074;DHT22;6603;47.066;15.396;2023-07-22T15:05:55;21.40;20.50
13074;DHT22;6603;47.066;15.396;2023-07-22T15:08:21;21.20;99.10
13074;DHT22;6603;47.066;15.396;2023-07-22T15:10:46;20.80;99.90
13074;DHT22;6603;47.066;15.396;2023-07-22T15:13:13;20.30;99.90
13074;DHT22;6603;47.066;15.396;2023-07-22T15:15:39;19.80;99.90
13074;DHT22;6603;47.066;15.396;2023-07-22T15:18:04;19.20;99.90
13074;DHT22;6603;47.066;15.396;2023-07-22T15:20:31;18.80;99.90
13074;DHT22;6603;47.066;15.396;2023-07-22T15:22:57;18.80;99.90
13074;DHT22;6603;47.066;15.396;2023-07-22T15:25:23;18.60;99.90
13074;DHT22;6603;47.066;15.396;2023-07-22T15:27:48;18.50;99.90
13074;DHT22;6603;47.066;15.396;2023-07-22T15:30:14;18.60;99.90
13074;DHT22;6603;47.066;15.396;2023-07-22T15:32:40;18.60;99.90
13074;DHT22;6603;47.066;15.396;2023-07-22T15:35:06;18.70;99.90
13074;DHT22;6603;47.066;15.396;2023-07-22T15:37:32;18.90;99.90
13074;DHT22;6603;47.066;15.396;2023-07-22T15:39:57;19.10;99.90
13074;DHT22;6603;47.066;15.396;2023-07-22T15:42:23;19.30;99.90
13074;DHT22;6603;47.066;15.396;2023-07-22T15:44:49;19.90;99.90
13074;DHT22;6603;47.066;15.396;2023-07-22T15:47:14;20.10;99.90
13074;DHT22;6603;47.066;15.396;2023-07-22T15:49:40;20.30;99.90
13074;DHT22;6603;47.066;15.396;2023-07-22T15:52:06;21.20;99.90
13074;DHT22;6603;47.066;15.396;2023-07-22T15:54:32;21.90;99.90
13074;DHT22;6603;47.066;15.396;2023-07-22T15:56:58;21.90;99.90
13074;DHT22;6603;47.066;15.396;2023-07-22T15:59:24;21.60;99.90
13074;DHT22;6603;47.066;15.396;2023-07-22T16:01:50;21.30;99.90